Walla Walla Regional Airport
KALW : now visible

Airfield :











YOU CAN JOIN US ON...

 
LOGIN :

Register | Disclaimer

   EN    FR    IT 

 









Legend :    VFR   Marginal VFR   IFR   Intensive IFR   Very Intensive IFR
Visi :
Ceiling :
>= 8 km
>= 3000ft
5 to 8 km
1000 to 3000 ft
1500m to 5 km
500 to 1000 ft
800 to 1500m
200 to 500 ft
< 800m
< 200 ft
Symbols :   Thunderstorms  Fog  Heavy snow  Heavy precipitations  Wind > 20 kt







- Airport Elevation : 1194 ft
- IATA code : ALW


KALW - Walla Walla Regional

CURRENT METAR :
  • 260153Z AUTO 26007KT 10SM CLR 27/06 A3004 RMK AO2 SLP166 T02670061

EXPIRED METARs :
  • 260053Z 23005KT 10SM CLR 27/07 A3003 RMK AO2 SLP163 T02670067
  • 252353Z 20006KT 10SM FEW070 27/08 A3004 RMK AO2 SLP165 T02670078 10278 20217 58008

TAF KALW
Valid from the 26 at 00:00 until the 27 at 00:00 UTC


252327Z 2600/2624 21010KT P6SM SKC
FM260400 12007KT P6SM SKC
FM261700 25008KT P6SM SKC
No reported NOTAMs for that airfield.



MET'MAP, your aeronautical weather chart ! - Copyright ORBIFLY December 2007 - Disclaimer

ORBIFLY MET'MAP TEAM :

Programming & Development : Alexandra Zaïnal
Concept & Development : Baudouin d'Aumeries
Co-Development & Prog : Marc-Olivier Méhu
Technical & hardware support : Manuel Goepfert

Contact : metmap@orbifly.com




SOURCES & CREDITS :

   NOAA       Earth
Advisory